createdAt,value
2023-04-04T00:02:37.052Z,2.05
2023-04-04T00:05:28.555Z,1.80
2023-04-04T00:08:19.647Z,1.72
2023-04-04T00:13:50.172Z,1.82
2023-04-04T00:16:41.429Z,2.10
2023-04-04T00:19:32.485Z,1.77
2023-04-04T00:22:24.036Z,2.05
2023-04-04T00:28:01.123Z,2.00
2023-04-04T00:33:31.851Z,1.98
2023-04-04T00:36:23.495Z,2.00
2023-04-04T00:39:14.809Z,1.30
2023-04-04T00:42:06.686Z,2.00
2023-04-04T00:47:38.099Z,2.00
2023-04-04T00:53:08.739Z,2.33
2023-04-04T00:56:00.180Z,2.30
2023-04-04T00:58:52.117Z,2.50
2023-04-04T01:01:43.701Z,1.72
2023-04-04T01:04:35.283Z,2.00
2023-04-04T01:07:26.544Z,1.98
2023-04-04T01:10:18.539Z,2.22
2023-04-04T01:13:10.041Z,2.40
2023-04-04T01:18:40.330Z,1.90
2023-04-04T01:21:32.215Z,2.00
2023-04-04T01:24:25.764Z,2.27
2023-04-04T01:27:18.664Z,2.08
2023-04-04T01:30:13.563Z,2.02
2023-04-04T01:33:07.932Z,2.27
2023-04-04T01:36:05.779Z,2.45
2023-04-04T01:39:00.175Z,2.27
2023-04-04T01:41:52.782Z,2.20
2023-04-04T01:44:44.508Z,1.72
2023-04-04T01:47:41.853Z,2.45
2023-04-04T01:50:34.883Z,2.27
2023-04-04T01:53:26.659Z,2.65
2023-04-04T01:56:18.888Z,2.12
2023-04-04T01:59:10.127Z,2.35
2023-04-04T02:02:01.341Z,2.40
2023-04-04T02:07:31.137Z,2.30
2023-04-04T02:10:22.586Z,2.15
2023-04-04T02:13:14.008Z,2.27
2023-04-04T02:16:06.372Z,2.12
2023-04-04T02:18:57.938Z,2.40
2023-04-04T02:21:49.316Z,1.75
2023-04-04T02:24:40.855Z,2.40
2023-04-04T02:27:32.256Z,2.27
2023-04-04T02:33:03.551Z,2.02
2023-04-04T02:35:57.398Z,2.42
2023-04-04T02:41:29.214Z,2.22
2023-04-04T02:44:21.152Z,2.20
2023-04-04T02:47:14.066Z,2.10
2023-04-04T02:50:05.508Z,2.75
2023-04-04T02:53:03.071Z,2.70
2023-04-04T02:55:56.331Z,2.67
2023-04-04T02:58:47.515Z,2.22
2023-04-04T03:04:19.692Z,2.33
2023-04-04T03:07:11.428Z,2.47
2023-04-04T03:10:02.682Z,2.55
2023-04-04T03:12:54.107Z,2.50
2023-04-04T03:15:47.480Z,2.22
2023-04-04T03:21:19.763Z,2.52
2023-04-04T03:24:11.347Z,2.72
2023-04-04T03:27:03.773Z,2.62
2023-04-04T03:29:55.307Z,2.87
2023-04-04T03:32:47.080Z,2.52
2023-04-04T03:35:41.302Z,2.60
2023-04-04T03:38:32.993Z,2.52
2023-04-04T03:41:24.050Z,2.80
2023-04-04T03:44:15.406Z,1.95
2023-04-04T03:47:07.152Z,2.67
2023-04-04T03:52:41.170Z,2.42
2023-04-04T03:55:32.457Z,2.35
2023-04-04T03:58:24.203Z,3.10
2023-04-04T04:01:15.700Z,1.92
2023-04-04T04:06:59.669Z,3.00
2023-04-04T04:12:34.105Z,3.10
2023-04-04T04:15:26.545Z,2.72
2023-04-04T04:18:20.198Z,2.77
2023-04-04T04:23:51.639Z,2.67
2023-04-04T04:26:42.703Z,2.67
2023-04-04T04:29:35.098Z,3.02
2023-04-04T04:32:27.694Z,2.80
2023-04-04T04:35:20.730Z,2.80
2023-04-04T04:38:12.365Z,2.80
2023-04-04T04:41:03.980Z,3.15
2023-04-04T04:46:34.897Z,2.95
2023-04-04T04:49:27.889Z,3.10
2023-04-04T04:54:57.699Z,3.00
2023-04-04T04:57:50.058Z,1.82
2023-04-04T05:00:43.030Z,2.45
2023-04-04T05:03:35.276Z,2.58
2023-04-04T05:06:28.023Z,2.72
2023-04-04T05:09:20.213Z,3.05
2023-04-04T05:12:11.781Z,3.08
2023-04-04T05:15:05.523Z,2.67
2023-04-04T05:20:35.582Z,2.92
2023-04-04T05:23:28.474Z,2.22
2023-04-04T05:29:09.751Z,2.77
2023-04-04T05:32:02.578Z,2.75
2023-04-04T05:34:54.149Z,2.92
2023-04-04T05:40:25.191Z,2.50
2023-04-04T05:43:18.044Z,2.72
2023-04-04T05:46:16.356Z,2.20
2023-04-04T05:49:10.760Z,2.40
2023-04-04T05:54:51.983Z,2.85
2023-04-04T05:57:50.406Z,2.85
2023-04-04T06:00:43.858Z,2.27
2023-04-04T06:03:36.581Z,2.83
2023-04-04T06:06:29.755Z,2.75
2023-04-04T06:09:20.860Z,2.60
2023-04-04T06:14:57.422Z,2.47
2023-04-04T06:17:48.833Z,2.55
2023-04-04T06:23:20.525Z,2.40
2023-04-04T06:28:53.084Z,2.20
2023-04-04T06:31:48.984Z,2.35
2023-04-04T06:37:21.828Z,2.67
2023-04-04T06:42:58.410Z,2.60
2023-04-04T06:45:54.336Z,2.57
2023-04-04T06:51:25.954Z,3.10
2023-04-04T06:54:17.915Z,2.50
2023-04-04T06:57:09.452Z,2.35
2023-04-04T07:02:40.048Z,2.60
2023-04-04T07:05:32.410Z,2.72
2023-04-04T07:11:02.867Z,2.50
2023-04-04T07:16:38.656Z,3.25
2023-04-04T07:22:08.910Z,2.30
2023-04-04T07:24:59.772Z,2.90
2023-04-04T07:27:55.162Z,1.40
2023-04-04T07:33:22.625Z,2.58
2023-04-04T07:36:14.050Z,2.33
2023-04-04T07:41:44.803Z,2.72
2023-04-04T07:44:36.467Z,2.77
2023-04-04T07:47:28.340Z,2.77
2023-04-04T07:53:00.338Z,2.55
2023-04-04T07:55:51.679Z,2.58
2023-04-04T07:58:43.132Z,2.30
2023-04-04T08:01:34.559Z,2.25
2023-04-04T08:04:26.564Z,2.02
2023-04-04T08:07:17.940Z,2.52
2023-04-04T08:10:12.020Z,2.47
2023-04-04T08:13:04.608Z,2.58
2023-04-04T08:18:35.526Z,2.35
2023-04-04T08:21:26.674Z,2.42
2023-04-04T08:24:18.168Z,2.17
2023-04-04T08:27:09.676Z,2.35
2023-04-04T08:30:02.674Z,2.27
2023-04-04T08:35:32.327Z,2.40
2023-04-04T08:38:23.729Z,2.40
2023-04-04T08:41:16.585Z,2.58
2023-04-04T08:44:09.502Z,1.98
2023-04-04T08:49:43.357Z,2.30
2023-04-04T08:52:36.112Z,2.33
2023-04-04T08:58:05.296Z,2.47
2023-04-04T09:00:57.024Z,2.60
2023-04-04T09:06:29.741Z,2.37
2023-04-04T09:09:22.963Z,2.37
2023-04-04T09:12:15.448Z,2.40
2023-04-04T09:15:08.235Z,2.50
2023-04-04T09:17:59.589Z,2.08
2023-04-04T09:20:51.627Z,2.45
2023-04-04T09:23:44.830Z,2.70
2023-04-04T09:26:51.629Z,2.80
2023-04-04T09:29:44.019Z,2.52
2023-04-04T09:32:35.439Z,2.22
2023-04-04T09:35:28.747Z,2.12
2023-04-04T09:38:20.505Z,2.40
2023-04-04T09:41:11.850Z,2.50
2023-04-04T09:44:03.457Z,2.77
2023-04-04T09:46:54.855Z,2.45
2023-04-04T09:49:46.890Z,2.37
2023-04-04T09:52:38.331Z,2.35
2023-04-04T09:55:37.703Z,2.50
2023-04-04T09:58:32.157Z,2.47
2023-04-04T10:01:25.091Z,2.25
2023-04-04T10:04:17.351Z,2.40
2023-04-04T10:07:10.096Z,2.60
2023-04-04T10:12:45.083Z,2.80
2023-04-04T10:15:38.955Z,2.47
2023-04-04T10:18:31.346Z,2.92
2023-04-04T10:21:22.778Z,2.70
2023-04-04T10:24:20.348Z,2.90
2023-04-04T10:27:11.693Z,2.70
2023-04-04T10:30:03.647Z,3.08
2023-04-04T10:32:59.920Z,3.10
2023-04-04T10:35:54.134Z,2.30
2023-04-04T10:38:48.293Z,2.62
2023-04-04T10:41:41.740Z,2.70
2023-04-04T10:44:35.155Z,2.52
2023-04-04T10:47:29.554Z,2.83
2023-04-04T10:50:22.738Z,2.70
2023-04-04T10:53:14.663Z,2.92
2023-04-04T10:56:07.184Z,3.02
2023-04-04T10:59:14.277Z,2.80
2023-04-04T11:02:09.151Z,2.87
2023-04-04T11:05:12.722Z,2.90
2023-04-04T11:08:09.430Z,3.40
2023-04-04T11:11:01.561Z,3.20
2023-04-04T11:14:03.090Z,4.28
2023-04-04T11:16:54.563Z,3.70
2023-04-04T11:19:51.935Z,3.55
2023-04-04T11:22:44.051Z,2.75
2023-04-04T11:25:37.666Z,3.33
2023-04-04T11:28:32.322Z,3.25
2023-04-04T11:31:30.231Z,3.08
2023-04-04T11:34:34.412Z,2.98
2023-04-04T11:37:26.117Z,4.33
2023-04-04T11:40:18.624Z,7.55
2023-04-04T11:43:13.534Z,2.65
2023-04-04T11:46:09.124Z,2.90
2023-04-04T11:49:01.715Z,3.00
2023-04-04T11:51:53.676Z,2.75
2023-04-04T11:54:46.467Z,3.10
2023-04-04T11:57:40.403Z,3.02
2023-04-04T12:00:33.125Z,3.27
2023-04-04T12:03:24.931Z,2.80
2023-04-04T12:06:18.291Z,3.55
2023-04-04T12:09:12.655Z,2.67
2023-04-04T12:12:05.289Z,3.35
2023-04-04T12:15:10.401Z,3.33
2023-04-04T12:17:51.494Z,2.87
2023-04-04T12:20:42.939Z,3.12
2023-04-04T12:23:37.073Z,2.87
2023-04-04T12:26:30.070Z,8.35
2023-04-04T12:29:23.536Z,4.22
2023-04-04T12:32:16.008Z,3.37
2023-04-04T12:35:08.589Z,3.12
2023-04-04T12:38:06.826Z,3.22
2023-04-04T12:40:58.594Z,3.12
2023-04-04T12:43:50.554Z,3.12
2023-04-04T12:46:44.130Z,3.00
2023-04-04T12:49:39.450Z,3.00
2023-04-04T12:52:32.678Z,3.05
2023-04-04T12:55:25.091Z,2.85
2023-04-04T12:58:18.209Z,3.10
2023-04-04T13:01:10.594Z,3.08
2023-04-04T13:04:05.169Z,3.08
2023-04-04T13:06:56.682Z,3.08
2023-04-04T13:09:55.345Z,3.00
2023-04-04T13:13:00.353Z,2.90
2023-04-04T13:15:54.609Z,3.10
2023-04-04T13:18:47.989Z,3.35
2023-04-04T13:21:40.980Z,3.35
2023-04-04T13:24:32.069Z,3.15
2023-04-04T13:27:23.498Z,2.90
2023-04-04T13:30:15.748Z,3.05
2023-04-04T13:33:07.347Z,3.20
2023-04-04T13:35:59.332Z,2.80
2023-04-04T13:38:50.351Z,2.92
2023-04-04T13:41:41.673Z,3.02
2023-04-04T13:44:33.160Z,2.92
2023-04-04T13:47:24.584Z,2.83
2023-04-04T13:50:16.926Z,2.67
2023-04-04T13:53:08.318Z,2.90
2023-04-04T13:56:17.110Z,2.30
2023-04-04T13:58:54.147Z,3.20
2023-04-04T14:01:45.983Z,2.72
2023-04-04T14:04:39.176Z,2.60
2023-04-04T14:07:30.500Z,2.98
2023-04-04T14:10:22.224Z,3.05
2023-04-04T14:13:13.858Z,2.37
2023-04-04T14:16:05.364Z,2.72
2023-04-04T14:18:58.358Z,2.85
2023-04-04T14:21:55.387Z,2.52
2023-04-04T14:24:56.031Z,2.30
2023-04-04T14:27:51.634Z,2.65
2023-04-04T14:30:44.917Z,2.33
2023-04-04T14:33:38.515Z,2.60
2023-04-04T14:36:32.663Z,3.20
2023-04-04T14:39:27.945Z,2.98
2023-04-04T14:42:25.527Z,2.40
2023-04-04T14:45:20.208Z,2.37
2023-04-04T14:48:12.800Z,2.35
2023-04-04T14:51:07.999Z,2.45
2023-04-04T14:54:01.279Z,2.25
2023-04-04T14:56:53.845Z,2.30
2023-04-04T14:59:49.953Z,2.20
2023-04-04T15:02:42.017Z,2.58
2023-04-04T15:05:34.251Z,2.10
2023-04-04T15:08:26.966Z,1.98
2023-04-04T15:11:20.302Z,2.27
2023-04-04T15:14:13.735Z,2.20
2023-04-04T15:17:05.781Z,2.22
2023-04-04T15:19:58.493Z,1.90
2023-04-04T15:22:50.221Z,2.20
2023-04-04T15:25:43.154Z,2.30
2023-04-04T15:28:37.673Z,2.20
2023-04-04T15:31:32.123Z,2.20
2023-04-04T15:34:26.960Z,1.92
2023-04-04T15:37:21.343Z,1.98
2023-04-04T15:40:16.744Z,2.92
2023-04-04T15:43:10.892Z,1.80
2023-04-04T15:46:05.131Z,2.20
2023-04-04T15:49:14.559Z,2.40
2023-04-04T15:52:09.057Z,2.10
2023-04-04T15:55:05.350Z,2.12
2023-04-04T15:57:59.360Z,2.17
2023-04-04T16:00:52.240Z,2.25
2023-04-04T16:03:48.841Z,2.00
2023-04-04T16:09:21.571Z,1.80
2023-04-04T16:12:12.944Z,2.00
2023-04-04T16:15:05.430Z,2.58
2023-04-04T16:17:58.641Z,2.45
2023-04-04T16:20:50.171Z,2.20
2023-04-04T16:23:43.417Z,2.55
2023-04-04T16:26:34.676Z,1.92
2023-04-04T16:29:25.837Z,2.08
2023-04-04T16:32:17.568Z,1.60
2023-04-04T16:35:11.095Z,1.87
2023-04-04T16:38:02.316Z,1.70
2023-04-04T16:40:53.767Z,1.70
2023-04-04T16:43:46.894Z,1.98
2023-04-04T16:46:38.155Z,1.90
2023-04-04T16:49:29.731Z,1.95
2023-04-04T16:52:20.940Z,1.90
2023-04-04T16:55:12.713Z,1.62
2023-04-04T16:58:04.111Z,2.98
2023-04-04T17:00:55.930Z,1.92
2023-04-04T17:03:47.453Z,1.70
2023-04-04T17:06:38.872Z,1.82
2023-04-04T17:09:31.574Z,1.90
2023-04-04T17:12:24.285Z,1.80
2023-04-04T17:15:17.907Z,1.50
2023-04-04T17:18:09.315Z,1.75
2023-04-04T17:21:00.857Z,1.75
2023-04-04T17:23:52.017Z,1.80
2023-04-04T17:26:43.536Z,1.70
2023-04-04T17:32:14.356Z,1.80
2023-04-04T17:35:07.006Z,1.65
2023-04-04T17:37:58.660Z,1.72
2023-04-04T17:40:50.481Z,2.15
2023-04-04T17:43:41.593Z,1.27
2023-04-04T17:46:32.834Z,1.80
2023-04-04T17:49:24.827Z,1.90
2023-04-04T17:52:17.959Z,1.50
2023-04-04T17:55:11.066Z,2.60
2023-04-04T17:58:02.435Z,1.80
2023-04-04T18:00:55.324Z,1.98
2023-04-04T18:03:46.757Z,1.40
2023-04-04T18:06:40.458Z,1.27
2023-04-04T18:09:32.092Z,1.57
2023-04-04T18:12:24.786Z,1.45
2023-04-04T18:15:16.995Z,1.75
2023-04-04T18:18:08.803Z,1.57
2023-04-04T18:21:00.245Z,1.37
2023-04-04T18:23:51.550Z,1.30
2023-04-04T18:26:44.380Z,1.47
2023-04-04T18:29:36.066Z,1.25
2023-04-04T18:32:28.706Z,1.07
2023-04-04T18:35:20.602Z,1.25
2023-04-04T18:38:12.917Z,1.25
2023-04-04T18:43:43.187Z,1.25
2023-04-04T18:46:34.488Z,1.57
2023-04-04T18:49:26.502Z,1.47
2023-04-04T18:54:55.723Z,1.40
2023-04-04T18:57:48.311Z,1.30
2023-04-04T19:00:39.713Z,1.77
2023-04-04T19:03:34.961Z,1.52
2023-04-04T19:06:28.375Z,1.50
2023-04-04T19:11:58.191Z,1.50
2023-04-04T19:14:49.208Z,1.70
2023-04-04T19:17:41.386Z,2.12
2023-04-04T19:20:33.025Z,3.17
2023-04-04T19:26:06.700Z,1.87
2023-04-04T19:28:57.973Z,2.05
2023-04-04T19:31:49.820Z,2.15
2023-04-04T19:34:41.063Z,1.98
2023-04-04T19:40:16.668Z,1.37
2023-04-04T19:43:08.496Z,1.90
2023-04-04T19:48:52.232Z,1.67
2023-04-04T19:51:51.816Z,1.90
2023-04-04T19:54:43.564Z,1.77
2023-04-04T19:57:35.068Z,1.90
2023-04-04T20:03:09.793Z,1.77
2023-04-04T20:06:11.713Z,1.70
2023-04-04T20:09:06.092Z,2.05
2023-04-04T20:11:57.340Z,1.50
2023-04-04T20:14:48.671Z,1.60
2023-04-04T20:17:40.216Z,2.92
2023-04-04T20:20:52.862Z,1.62
2023-04-04T20:23:47.955Z,1.90
2023-04-04T20:26:55.808Z,1.62
2023-04-04T20:29:47.298Z,1.65
2023-04-04T20:32:38.883Z,2.00
2023-04-04T20:35:31.087Z,1.98
2023-04-04T20:41:01.609Z,1.87
2023-04-04T20:43:54.933Z,1.62
2023-04-04T20:46:46.362Z,1.60
2023-04-04T20:49:37.845Z,2.10
2023-04-04T20:55:10.291Z,1.55
2023-04-04T20:58:04.378Z,1.22
2023-04-04T21:03:38.652Z,1.32
2023-04-04T21:09:20.906Z,2.12
2023-04-04T21:14:51.183Z,1.80
2023-04-04T21:21:02.248Z,1.30
2023-04-04T21:23:54.808Z,1.30
2023-04-04T21:26:46.580Z,1.25
2023-04-04T21:29:37.779Z,1.27
2023-04-04T21:35:11.395Z,1.20
2023-04-04T21:38:02.726Z,1.35
2023-04-04T21:40:53.822Z,1.55
2023-04-04T21:43:45.328Z,1.47
2023-04-04T21:46:38.056Z,1.30
2023-04-04T21:52:11.862Z,1.30
2023-04-04T21:57:41.903Z,1.42
2023-04-04T22:00:33.105Z,1.50
2023-04-04T22:03:24.830Z,1.60
2023-04-04T22:06:16.502Z,1.67
2023-04-04T22:09:08.042Z,1.25
2023-04-04T22:12:01.373Z,1.50
2023-04-04T22:14:53.089Z,1.35
2023-04-04T22:17:46.535Z,1.30
2023-04-04T22:23:17.816Z,1.62
2023-04-04T22:28:50.313Z,1.55
2023-04-04T22:34:21.072Z,1.37
2023-04-04T22:39:51.720Z,1.40
2023-04-04T22:42:42.939Z,1.47
2023-04-04T22:45:34.683Z,1.55
2023-04-04T22:51:04.849Z,1.60
2023-04-04T22:53:57.348Z,1.40
2023-04-04T22:59:29.493Z,1.10
2023-04-04T23:02:21.015Z,1.40
2023-04-04T23:05:14.718Z,1.60
2023-04-04T23:10:45.479Z,1.45
2023-04-04T23:13:37.713Z,1.57
2023-04-04T23:19:08.771Z,2.22
2023-04-04T23:22:00.639Z,1.80
2023-04-04T23:24:51.991Z,1.90
2023-04-04T23:30:24.238Z,1.92
2023-04-04T23:33:17.070Z,1.70
2023-04-04T23:36:09.365Z,1.72
2023-04-04T23:39:00.797Z,2.00
2023-04-04T23:41:51.982Z,1.70
2023-04-04T23:47:21.327Z,1.82
2023-04-04T23:50:13.047Z,1.85
2023-04-04T23:53:04.416Z,1.90
2023-04-04T23:55:55.587Z,1.80
2023-04-04T23:58:47.101Z,1.80
